ICAO: (seperate multiple stations with a space)
EGTC 221220Z 02012KT 9999 FEW026 BKN043 13/08 Q1021

TAF EGTC 221056Z 2212/2218 02011KT 9999 FEW025 SCT040


EGSC 221220Z 04012KT 9999 FEW028 SCT040 16/07 Q1021

TAF EGSC 221056Z 2212/2219 04012KT 9999 FEW030 SCT040


EGGW 221220Z AUTO 04014KT 9999 BKN041 16/07 Q1021

TAF EGGW 221054Z 2212/2312 03012KT 9999 SCT035
  BECMG 2221/2224 33004KT


EGUY - No Current METAR